Time;durP1;ratioP1;P1;durP2;ratioP2;P2;SDS_P1;SDS_P2;PMS_P1;PMS_P2;Temp;Humidity;BMP_temperature;BMP_pressure;BME280_temperature;BME280_humidity;BME280_pressure;Samples;Min_cycle;Max_cycle;Signal;HPM_P1;HPM_P2
2022/01/21 01:04:24;;;;;;;13.30;3.70;;;;;;;-2.44;64.54;99462.25;106238;1263;137755;-68
2022/01/21 01:06:52;;;;;;;6.30;3.10;;;;;;;-2.47;64.71;99460.88;105850;1271;110707;-68
2022/01/21 01:09:22;;;;;;;5.90;2.80;;;;;;;-2.49;64.99;99467.33;105959;1273;107833;-68
2022/01/21 01:12:08;;;;;;;7.90;2.80;;;;;;;-2.51;64.74;99469.02;106013;1271;137584;-68
2022/01/21 01:20:13;;;;;;;9.30;3.20;;;;;;;-2.60;64.74;99472.84;106217;1270;110110;-67
2022/01/21 01:22:50;;;;;;;6.60;3.00;;;;;;;-2.62;64.68;99469.09;106116;1271;137775;-68
2022/01/21 01:28:05;;;;;;;;;;;;;;;-2.63;64.86;99469.08;106228;1273;96677;-67
2022/01/21 01:30:36;;;;;;;8.90;3.50;;;;;;;-2.63;65.01;99472.48;106112;1271;124361;-67
2022/01/21 01:33:08;;;;;;;7.00;2.90;;;;;;;-2.62;65.37;99473.00;106205;1271;111570;-67
2022/01/21 01:35:38;;;;;;;6.30;2.90;;;;;;;-2.61;64.99;99470.80;106082;1268;138063;-67
2022/01/21 01:38:22;;;;;;;11.50;2.90;;;;;;;-2.59;64.76;99469.61;106133;1273;109105;-68
2022/01/21 01:40:55;;;;;;;6.00;2.30;;;;;;;-2.58;64.90;99468.27;106083;1271;137852;-68
2022/01/21 01:51:40;;;;;;;;;;;;;;;-2.50;65.26;99464.94;105701;1279;108886;-67
2022/01/21 01:54:12;;;;;;;6.90;2.90;;;;;;;-2.49;64.48;99461.71;105499;1279;124187;-67
2022/01/21 01:56:44;;;;;;;6.60;2.60;;;;;;;-2.49;65.06;99462.73;105820;1277;96502;-67
2022/01/21 01:59:12;;;;;;;4.30;2.50;;;;;;;-2.48;64.89;99458.15;105669;1277;137592;-67
2022/01/21 02:01:41;;;;;;;8.70;2.40;;;;;;;-2.46;64.83;99456.96;105701;1276;109180;-68
2022/01/21 02:04:10;;;;;;;6.00;2.40;;;;;;;-2.46;64.89;99455.77;105729;1276;107550;-67
2022/01/21 02:06:40;;;;;;;6.80;2.70;;;;;;;-2.44;64.73;99459.87;105931;1277;138378;-67
2022/01/21 02:09:08;;;;;;;6.70;2.50;;;;;;;-2.42;64.83;99450.01;105690;1279;96628;-67
2022/01/21 02:11:37;;;;;;;4.40;2.50;;;;;;;-2.40;64.77;99453.08;105571;1277;137695;-67
2022/01/21 02:14:10;;;;;;;4.40;2.10;;;;;;;-2.38;64.66;99451.05;105669;1278;107879;-67
2022/01/21 02:17:06;;;;;;;4.50;2.10;;;;;;;-2.37;64.72;99450.88;105603;1277;138047;-67
2022/01/21 02:22:27;;;;;;;7.80;2.40;;;;;;;-2.34;64.55;99439.31;105709;1277;96449;-67
2022/01/21 02:24:59;;;;;;;3.50;1.90;;;;;;;-2.32;64.47;99446.52;105856;1273;137294;-67
2022/01/21 02:27:28;;;;;;;7.40;2.30;;;;;;;-2.31;65.04;99453.50;106192;1271;108508;-67
2022/01/21 02:30:02;;;;;;;6.70;2.30;;;;;;;-2.31;64.90;99447.71;105871;1273;138358;-67
2022/01/21 02:32:33;;;;;;;5.00;2.00;;;;;;;-2.32;65.23;99450.43;106113;1271;96467;-67
2022/01/21 02:35:01;;;;;;;4.50;2.20;;;;;;;-2.33;65.48;99443.94;105935;1271;138674;-67
2022/01/21 02:37:30;;;;;;;7.40;2.80;;;;;;;-2.37;65.63;99442.20;106108;1273;111354;-67
2022/01/21 02:39:58;;;;;;;4.10;2.20;;;;;;;-2.39;66.08;99447.80;106052;1272;108939;-67
2022/01/21 02:42:27;;;;;;;5.30;2.20;;;;;;;-2.43;65.60;99449.15;105687;1273;138147;-68
2022/01/21 02:44:56;;;;;;;7.30;2.40;;;;;;;-2.45;66.06;99468.72;105986;1273;96522;-67
2022/01/21 02:47:24;;;;;;;5.50;2.30;;;;;;;-2.44;66.12;99468.55;105945;1273;137186;-67
2022/01/21 02:49:56;;;;;;;5.50;2.40;;;;;;;-2.45;66.34;99462.77;105989;1273;111255;-67
2022/01/21 02:52:28;;;;;;;7.50;2.50;;;;;;;-2.48;66.44;99463.25;105991;1273;108912;-67
2022/01/21 02:54:57;;;;;;;6.60;2.70;;;;;;;-2.48;66.48;99459.85;105855;1273;138492;-67
2022/01/21 02:57:25;;;;;;;8.60;3.20;;;;;;;-2.50;66.85;99456.77;106068;1271;96465;-67
2022/01/21 02:59:54;;;;;;;6.20;2.40;;;;;;;-2.52;66.67;99463.38;105943;1273;138554;-67
2022/01/21 03:02:22;;;;;;;7.00;2.80;;;;;;;-2.58;66.50;99458.39;105987;1271;110021;-67
2022/01/21 03:04:59;;;;;;;6.70;2.20;;;;;;;-2.64;66.83;99459.37;105912;1272;137798;-67
2022/01/21 03:07:28;;;;;;;5.80;2.70;;;;;;;-2.70;66.80;99459.30;105857;1273;109181;-67
2022/01/21 03:09:56;;;;;;;6.20;2.50;;;;;;;-2.74;66.94;99471.52;106051;1273;96690;-68
2022/01/21 03:12:25;;;;;;;4.70;2.10;;;;;;;-2.80;67.48;99462.63;105994;1273;138319;-67
2022/01/21 03:14:53;;;;;;;4.20;2.30;;;;;;;-2.86;67.14;99463.77;106076;1273;110035;-67
2022/01/21 03:17:22;;;;;;;6.00;2.10;;;;;;;-2.88;67.36;99466.11;105987;1272;139244;-67
2022/01/21 03:19:50;;;;;;;5.90;2.20;;;;;;;-2.89;67.42;99467.48;106032;1272;108951;-67
2022/01/21 03:22:19;;;;;;;9.50;2.50;;;;;;;-2.88;67.38;99460.67;105933;1273;96802;-67
2022/01/21 03:24:48;;;;;;;4.50;2.10;;;;;;;-2.85;67.45;99457.33;105963;1273;137186;-67
2022/01/21 03:27:17;;;;;;;9.90;2.50;;;;;;;-2.84;67.44;99466.01;105986;1272;111150;-66
2022/01/21 03:29:46;;;;;;;7.50;2.60;;;;;;;-2.82;67.54;99467.72;105899;1273;138302;-67
2022/01/21 03:32:15;;;;;;;10.10;2.60;;;;;;;-2.82;67.55;99463.98;105962;1274;107500;-67
2022/01/21 03:34:43;;;;;;;5.90;2.40;;;;;;;-2.84;68.03;99462.60;105937;1273;137703;-66
2022/01/21 03:37:12;;;;;;;7.20;2.60;;;;;;;-2.85;67.42;99471.27;105902;1273;97126;-67
2022/01/21 03:39:40;;;;;;;8.90;2.60;;;;;;;-2.84;67.92;99481.99;106011;1273;111075;-67
2022/01/21 03:42:09;;;;;;;9.30;2.70;;;;;;;-2.84;67.87;99473.66;105905;1273;138366;-68
2022/01/21 03:44:38;;;;;;;6.70;2.10;;;;;;;-2.84;68.03;99478.26;106074;1273;107874;-67
2022/01/21 03:47:07;;;;;;;5.30;2.20;;;;;;;-2.82;67.73;99478.10;105990;1273;137937;-67
2022/01/21 03:49:39;;;;;;;9.30;2.70;;;;;;;-2.80;67.90;99479.48;106160;1272;96504;-68
2022/01/21 03:52:09;;;;;;;7.80;2.30;;;;;;;-2.79;67.90;99479.15;106016;1273;111120;-68
2022/01/21 03:54:38;;;;;;;6.60;2.50;;;;;;;-2.77;67.91;99483.08;105925;1273;139298;-67
2022/01/21 03:57:07;;;;;;;4.30;2.10;;;;;;;-2.74;68.12;99473.05;105978;1274;105556;-66
2022/01/21 03:59:35;;;;;;;6.60;1.80;;;;;;;-2.69;67.95;99463.23;105872;1273;139407;-68
2022/01/21 04:02:05;;;;;;;5.50;2.10;;;;;;;-2.65;67.85;99472.13;105910;1275;96496;-67
2022/01/21 04:04:35;;;;;;;3.80;2.00;;;;;;;-2.59;68.01;99483.57;106062;1273;111352;-67
2022/01/21 04:07:07;;;;;;;4.30;1.80;;;;;;;-2.54;67.78;99478.33;105871;1273;137870;-67
2022/01/21 04:09:41;;;;;;;4.70;2.10;;;;;;;-2.48;68.16;99481.13;106108;1272;106818;-67
2022/01/21 04:12:11;;;;;;;4.50;2.10;;;;;;;-2.45;68.06;99484.38;105869;1273;139537;-67
2022/01/21 04:14:41;;;;;;;5.30;1.80;;;;;;;-2.43;67.83;99479.27;106356;1273;96588;-67
2022/01/21 04:17:10;;;;;;;5.30;1.80;;;;;;;-2.41;68.31;99490.70;105886;1273;138246;-67
2022/01/21 04:19:39;;;;;;;6.30;1.90;;;;;;;-2.39;67.98;99486.27;106153;1273;108993;-67
2022/01/21 04:22:08;;;;;;;6.90;2.20;;;;;;;-2.39;67.74;99491.73;105951;1273;108934;-66
2022/01/21 04:24:38;;;;;;;6.30;1.80;;;;;;;-2.40;68.07;99497.84;105776;1275;138527;-67
2022/01/21 04:27:07;;;;;;;3.80;1.70;;;;;;;-2.40;67.84;99494.62;105954;1275;96508;-66
2022/01/21 04:29:35;;;;;;;5.50;2.00;;;;;;;-2.40;67.82;99494.45;105789;1273;137528;-67
2022/01/21 04:32:08;;;;;;;5.70;1.90;;;;;;;-2.39;68.03;99496.49;106138;1273;108990;-67
2022/01/21 04:34:37;;;;;;;9.00;2.30;;;;;;;-2.38;67.95;99496.16;107572;1273;108198;-67
2022/01/21 04:37:09;;;;;;;8.90;2.30;;;;;;;-2.37;68.03;99500.08;107466;1272;138463;-67
2022/01/21 04:39:51;;;;;;;6.60;2.30;;;;;;;-2.36;68.35;99506.39;107593;1271;95226;-67
2022/01/21 04:47:54;;;;;;;7.70;2.00;;;;;;;-2.20;67.32;99500.89;107501;1273;139801;-67
2022/01/21 04:50:25;;;;;;;4.30;2.00;;;;;;;-2.15;67.67;99501.80;107569;1273;94505;-67
2022/01/21 04:52:56;;;;;;;4.20;1.80;;;;;;;-2.09;67.79;99497.73;107442;1273;137905;-66
2022/01/21 04:55:35;;;;;;;6.10;1.80;;;;;;;-2.05;67.74;99497.60;107527;1273;111249;-67
2022/01/21 04:58:05;;;;;;;4.50;1.70;;;;;;;-2.02;67.61;99507.31;107668;1273;107868;-67
2022/01/21 05:00:33;;;;;;;6.30;2.20;;;;;;;-2.00;67.45;99502.56;107472;1273;138803;-67
2022/01/21 05:03:02;;;;;;;6.50;2.60;;;;;;;-1.98;67.73;99505.98;107564;1273;95899;-67
2022/01/21 05:05:32;;;;;;;5.30;2.20;;;;;;;-1.96;67.43;99512.32;107534;1273;137909;-67
2022/01/21 05:08:05;;;;;;;9.10;2.10;;;;;;;-1.96;67.57;99505.33;107540;1274;111208;-67
2022/01/21 05:10:36;;;;;;;7.10;2.10;;;;;;;-1.96;67.62;99511.98;107601;1272;107770;-67
2022/01/21 05:13:06;;;;;;;6.50;1.80;;;;;;;-1.95;67.67;99516.59;107561;1273;137319;-67
2022/01/21 05:15:57;;;;;;;3.30;1.80;;;;;;;-1.94;67.49;99514.54;106124;1271;96480;-67
2022/01/21 05:18:26;;;;;;;5.30;2.20;;;;;;;-1.93;67.93;99522.39;106000;1273;137413;-67
2022/01/21 05:21:15;;;;;;;5.40;2.00;;;;;;;-1.91;67.41;99526.65;106014;1273;110009;-67
2022/01/21 05:24:03;;;;;;;5.80;2.00;;;;;;;-1.91;67.58;99526.48;106009;1273;138071;-68
2022/01/21 05:26:36;;;;;;;5.00;1.80;;;;;;;-1.90;67.89;99524.79;106015;1273;109246;-66
2022/01/21 05:29:07;;;;;;;5.50;1.60;;;;;;;-1.88;67.67;99522.75;105962;1273;138350;-67
2022/01/21 05:31:51;;;;;;;4.60;1.90;;;;;;;-1.83;67.97;99527.02;105953;1273;96502;-66
2022/01/21 05:34:38;;;;;;;5.80;2.20;;;;;;;-1.77;67.59;99530.84;106173;1273;111721;-67
2022/01/21 05:37:22;;;;;;;4.60;2.10;;;;;;;-1.74;67.71;99524.70;105890;1274;138889;-66
2022/01/21 05:40:15;;;;;;;7.50;1.90;;;;;;;-1.73;67.55;99532.89;106037;1273;108994;-67
2022/01/21 05:42:54;;;;;;;8.00;2.30;;;;;;;-1.74;67.76;99533.06;106420;1273;137584;-67
2022/01/21 05:48:42;;;;;;;5.20;2.20;;;;;;;-1.76;67.71;99541.06;105953;1273;138295;-67
2022/01/21 05:51:29;;;;;;;6.30;2.10;;;;;;;-1.78;67.84;99540.20;106131;1273;108120;-67
2022/01/21 05:54:15;;;;;;;6.50;2.00;;;;;;;-1.80;67.76;99549.55;105911;1273;137538;-67
2022/01/21 05:57:15;;;;;;;8.10;2.70;;;;;;;-1.82;67.72;99551.23;106117;1272;96482;-66
2022/01/21 05:59:49;;;;;;;8.10;2.70;;;;;;;-1.83;67.95;99541.68;106022;1272;137387;-67
2022/01/21 06:02:18;;;;;;;7.30;2.70;;;;;;;-1.85;67.89;99547.13;106009;1273;111574;-67
2022/01/21 06:04:50;;;;;;;4.40;2.50;;;;;;;-1.88;68.08;99547.96;106168;1273;109098;-68
2022/01/21 06:07:19;;;;;;;3.60;1.80;;;;;;;-1.91;68.11;99548.13;105844;1274;138719;-67
2022/01/21 06:09:48;;;;;;;4.70;2.00;;;;;;;-1.91;68.03;99546.42;106048;1273;96542;-68
2022/01/21 06:12:17;;;;;;;6.00;2.10;;;;;;;-1.87;68.17;99549.33;105986;1271;138472;-68
2022/01/21 06:14:45;;;;;;;4.70;2.20;;;;;;;-1.82;68.28;99549.37;106102;1273;110051;-68
2022/01/21 06:17:14;;;;;;;7.60;2.70;;;;;;;-1.75;68.15;99550.10;106125;1273;138037;-68
2022/01/21 06:19:44;;;;;;;9.00;3.40;;;;;;;-1.72;68.24;99549.95;107632;1272;108417;-68
2022/01/21 06:22:15;;;;;;;9.10;2.60;;;;;;;-1.68;67.93;99550.47;106469;1272;96369;-68
2022/01/21 06:24:44;;;;;;;10.70;3.00;;;;;;;-1.65;68.05;99548.27;107148;1271;137083;-66
2022/01/21 06:27:14;;;;;;;10.50;3.20;;;;;;;-1.64;68.04;99548.95;107720;1272;110436;-66
2022/01/21 06:29:42;;;;;;;12.60;2.70;;;;;;;-1.65;67.93;99547.92;107593;1272;137643;-67
2022/01/21 06:32:11;;;;;;;5.80;2.30;;;;;;;-1.67;67.94;99547.91;107670;1271;108900;-67
2022/01/21 06:34:39;;;;;;;8.00;2.80;;;;;;;-1.70;67.88;99553.53;106143;1273;96619;-68
2022/01/21 06:37:08;;;;;;;5.20;2.60;;;;;;;-1.71;68.27;99561.02;105912;1273;137334;-68
2022/01/21 06:39:37;;;;;;;7.90;3.00;;;;;;;-1.72;68.01;99569.38;106711;1273;110436;-68
2022/01/21 06:42:06;;;;;;;4.60;2.40;;;;;;;-1.73;68.21;99575.34;105834;1273;137519;-68
2022/01/21 06:44:35;;;;;;;8.80;2.30;;;;;;;-1.74;68.39;99580.77;105775;1273;108967;-68
2022/01/21 06:47:05;;;;;;;6.20;2.40;;;;;;;-1.73;68.38;99577.71;106218;1273;138737;-69
2022/01/21 06:49:34;;;;;;;6.70;2.40;;;;;;;-1.70;68.40;99580.46;106186;1273;96494;-68
2022/01/21 06:52:03;;;;;;;5.20;2.40;;;;;;;-1.66;68.45;99586.61;106121;1273;112214;-67
2022/01/21 06:54:32;;;;;;;6.40;2.60;;;;;;;-1.63;68.62;99577.77;106509;1272;137732;-67
2022/01/21 06:57:00;;;;;;;5.10;2.50;;;;;;;-1.60;68.20;99581.23;106076;1273;107870;-67
2022/01/21 06:59:29;;;;;;;6.70;2.70;;;;;;;-1.59;68.28;99589.23;106916;1273;137610;-67
2022/01/21 07:01:58;;;;;;;6.00;2.60;;;;;;;-1.59;68.39;99594.02;107634;1272;95539;-67
2022/01/21 07:04:26;;;;;;;8.00;2.70;;;;;;;-1.58;68.00;99599.64;107713;1272;110042;-67
2022/01/21 07:06:57;;;;;;;8.40;2.80;;;;;;;-1.57;68.55;99602.54;106698;1273;139281;-69
2022/01/21 07:09:26;;;;;;;5.70;2.90;;;;;;;-1.56;68.35;99606.64;106269;1273;107819;-68
2022/01/21 07:11:55;;;;;;;6.30;3.00;;;;;;;-1.56;68.20;99612.09;106017;1273;137328;-67
2022/01/21 07:14:23;;;;;;;7.50;3.30;;;;;;;-1.56;68.30;99614.65;106453;1273;96962;-67
2022/01/21 07:16:52;;;;;;;9.00;3.30;;;;;;;-1.54;68.19;99610.05;106129;1273;110199;-68
2022/01/21 07:19:20;;;;;;;7.10;2.80;;;;;;;-1.53;68.07;99613.81;106044;1273;137542;-68
2022/01/21 07:21:49;;;;;;;6.40;2.70;;;;;;;-1.52;68.27;99621.99;106618;1273;108625;-67
2022/01/21 07:24:17;;;;;;;8.10;2.70;;;;;;;-1.45;68.14;99621.02;107628;1272;138168;-68
2022/01/21 07:26:46;;;;;;;9.30;3.30;;;;;;;-1.26;68.04;99629.33;107736;1272;94869;-68
2022/01/21 07:29:15;;;;;;;5.50;2.80;;;;;;;-1.05;67.79;99622.60;107211;1273;137750;-68
2022/01/21 07:31:43;;;;;;;8.20;3.00;;;;;;;-0.87;67.69;99619.27;106150;1273;108990;-68
2022/01/21 07:34:12;;;;;;;6.80;2.80;;;;;;;-0.65;67.28;99629.75;106823;1273;107537;-68
2022/01/21 07:36:41;;;;;;;6.80;3.20;;;;;;;-0.40;66.91;99629.65;107620;1271;138230;-68
2022/01/21 07:39:09;;;;;;;6.10;3.30;;;;;;;-0.12;66.60;99629.70;106471;1271;96494;-68
2022/01/21 07:41:38;;;;;;;9.30;3.20;;;;;;;0.13;66.08;99635.52;105887;1273;137710;-66
2022/01/21 07:44:07;;;;;;;9.40;3.80;;;;;;;0.39;65.42;99634.65;106113;1271;107788;-67
2022/01/21 07:46:36;;;;;;;8.80;4.00;;;;;;;0.64;65.22;99634.62;107034;1273;108742;-68
2022/01/21 07:49:04;;;;;;;7.60;3.00;;;;;;;0.89;64.23;99629.59;107668;1273;138005;-68
2022/01/21 07:51:33;;;;;;;8.10;3.50;;;;;;;1.13;63.51;99626.27;106525;1273;97918;-68
2022/01/21 07:54:03;;;;;;;9.60;3.30;;;;;;;1.36;63.24;99629.59;106185;1271;137237;-67
2022/01/21 07:56:33;;;;;;;6.60;2.90;;;;;;;1.58;61.96;99626.04;106056;1273;109064;-68
2022/01/21 07:59:03;;;;;;;7.20;3.30;;;;;;;1.77;62.09;99626.27;105993;1273;137507;-67
2022/01/21 08:01:31;;;;;;;6.30;2.90;;;;;;;1.98;60.93;99628.53;106048;1273;97943;-68
2022/01/21 08:04:00;;;;;;;8.50;3.20;;;;;;;2.18;60.89;99629.56;106010;1273;97824;-67
2022/01/21 08:06:30;;;;;;;8.30;3.20;;;;;;;2.45;60.74;99631.73;106023;1271;137437;-68
2022/01/21 08:08:59;;;;;;;8.40;2.60;;;;;;;2.69;60.23;99636.14;107634;1272;109050;-68
2022/01/21 08:11:28;;;;;;;7.20;2.50;;;;;;;2.86;59.47;99632.53;107540;1271;137519;-68
2022/01/21 08:13:57;;;;;;;5.50;2.40;;;;;;;3.02;58.20;99633.72;107698;1271;95993;-68
2022/01/21 08:16:26;;;;;;;6.00;2.30;;;;;;;3.22;58.37;99634.17;107700;1271;96151;-68
2022/01/21 08:18:55;;;;;;;6.50;2.60;;;;;;;3.42;57.01;99629.80;107504;1271;137323;-68
2022/01/21 08:21:23;;;;;;;4.30;2.50;;;;;;;3.51;57.35;99632.25;107566;1271;107911;-68
2022/01/21 08:23:54;;;;;;;6.10;2.50;;;;;;;3.67;55.94;99631.69;105864;1273;140186;-68
2022/01/21 08:26:26;;;;;;;4.70;2.40;;;;;;;3.98;55.62;99629.17;106668;1272;97882;-68
2022/01/21 08:28:56;;;;;;;5.70;2.60;;;;;;;4.07;55.29;99634.89;106903;1272;97848;-69
2022/01/21 08:31:25;;;;;;;6.10;2.70;;;;;;;3.86;54.42;99635.19;105865;1273;137048;-69
2022/01/21 08:33:54;;;;;;;6.60;2.30;;;;;;;3.61;54.94;99642.26;106027;1273;108726;-67
2022/01/21 08:36:24;;;;;;;5.20;3.00;;;;;;;3.37;54.84;99644.82;105874;1273;137354;-67
2022/01/21 08:38:53;;;;;;;8.50;2.90;;;;;;;3.12;55.37;99647.52;106102;1272;97853;-68
2022/01/21 08:41:22;;;;;;;5.10;2.70;;;;;;;2.86;55.37;99657.59;105815;1273;137329;-67
2022/01/21 08:43:50;;;;;;;5.70;2.60;;;;;;;2.59;55.26;99659.40;106124;1273;112554;-68
2022/01/21 08:46:20;;;;;;;6.80;2.90;;;;;;;2.38;56.01;99669.88;106147;1273;108797;-68
2022/01/21 08:48:49;;;;;;;7.80;2.80;;;;;;;2.13;55.59;99663.56;107542;1273;138401;-67
2022/01/21 08:51:24;;;;;;;5.70;2.50;;;;;;;1.89;55.63;99663.55;106119;1273;97826;-67
2022/01/21 08:53:53;;;;;;;8.40;2.60;;;;;;;1.66;56.53;99674.32;105960;1273;137914;-67
2022/01/21 08:56:22;;;;;;;4.70;2.50;;;;;;;1.49;56.76;99675.95;107379;1272;111532;-67
2022/01/21 08:58:50;;;;;;;6.30;2.90;;;;;;;1.30;56.86;99686.30;106879;1273;109302;-67
2022/01/21 09:01:19;;;;;;;7.10;2.60;;;;;;;1.14;57.64;99687.56;106450;1273;140935;-68
2022/01/21 09:03:48;;;;;;;11.10;3.00;;;;;;;1.00;57.68;99682.80;107540;1273;96266;-68
2022/01/21 09:06:19;;;;;;;6.90;2.70;;;;;;;0.86;58.01;99690.70;107333;1271;137564;-67
2022/01/21 09:08:47;;;;;;;9.40;2.70;;;;;;;0.75;58.35;99699.11;107391;1273;111980;-67
2022/01/21 09:11:16;;;;;;;8.40;3.00;;;;;;;0.65;58.56;99697.23;107500;1273;137901;-67
2022/01/21 09:13:45;;;;;;;8.90;3.30;;;;;;;0.55;59.03;99704.44;105966;1273;108985;-67
2022/01/21 09:16:15;;;;;;;8.30;3.30;;;;;;;0.48;58.98;99696.72;106126;1273;97833;-67
2022/01/21 09:18:46;;;;;;;7.50;3.10;;;;;;;0.40;59.34;99701.70;107132;1271;138692;-68
2022/01/21 09:21:33;;;;;;;10.20;2.90;;;;;;;0.33;59.44;99698.95;107246;1272;111579;-67
2022/01/21 09:24:04;;;;;;;7.10;3.10;;;;;;;0.27;59.74;99702.54;106446;1273;137426;-68
2022/01/21 09:26:33;;;;;;;8.70;4.00;;;;;;;0.23;59.83;99706.83;105835;1272;107940;-67
2022/01/21 09:29:05;;;;;;;7.50;3.40;;;;;;;0.21;60.01;99705.45;107030;1273;95882;-68
2022/01/21 09:31:34;;;;;;;9.20;3.10;;;;;;;0.17;59.98;99710.21;107449;1273;137375;-68
2022/01/21 09:34:23;;;;;;;11.80;4.20;;;;;;;0.14;60.30;99710.21;107381;1273;113903;-68
2022/01/21 09:36:52;;;;;;;8.10;3.80;;;;;;;0.14;60.65;99703.03;106818;1272;138246;-67
2022/01/21 09:39:21;;;;;;;8.90;3.30;;;;;;;0.15;60.53;99707.31;105809;1273;109588;-67
2022/01/21 09:41:51;;;;;;;7.20;3.50;;;;;;;0.15;60.75;99711.92;105691;1272;137488;-67
2022/01/21 09:44:21;;;;;;;7.10;3.40;;;;;;;0.15;60.77;99705.77;105797;1273;97874;-68
2022/01/21 09:46:51;;;;;;;6.80;3.60;;;;;;;0.14;60.63;99707.82;105833;1273;113076;-68
2022/01/21 09:49:26;;;;;;;10.20;3.90;;;;;;;0.14;60.64;99712.44;106261;1271;137471;-67
2022/01/21 09:51:57;;;;;;;7.40;3.40;;;;;;;0.11;60.72;99713.98;107575;1273;107537;-67
2022/01/21 09:54:27;;;;;;;11.60;4.30;;;;;;;0.10;60.80;99707.48;106160;1273;137627;-66
2022/01/21 09:56:58;;;;;;;12.40;4.00;;;;;;;0.10;60.65;99699.62;106034;1273;97834;-67
2022/01/21 09:59:28;;;;;;;6.10;3.40;;;;;;;0.10;60.81;99703.89;105929;1271;137579;-67
2022/01/21 10:01:59;;;;;;;8.10;3.50;;;;;;;0.13;60.58;99708.17;106222;1273;109128;-67
2022/01/21 10:04:30;;;;;;;8.10;3.10;;;;;;;0.18;60.84;99702.88;107633;1273;108771;-68
2022/01/21 10:06:59;;;;;;;7.60;3.80;;;;;;;0.21;60.43;99699.82;107524;1273;139025;-68
2022/01/21 10:09:28;;;;;;;7.10;3.10;;;;;;;0.22;60.19;99686.83;107612;1273;96006;-68
2022/01/21 10:11:58;;;;;;;7.00;3.00;;;;;;;0.26;60.10;99682.54;107531;1271;137944;-68
2022/01/21 10:14:29;;;;;;;12.60;3.30;;;;;;;0.39;59.95;99679.29;107483;1273;108836;-68
2022/01/21 10:16:59;;;;;;;7.80;3.50;;;;;;;0.63;60.36;99681.16;107507;1273;108827;-68
2022/01/21 10:19:29;;;;;;;10.40;3.10;;;;;;;1.23;60.26;99680.84;107487;1270;137414;-68
2022/01/21 10:22:06;;;;;;;6.10;2.70;;;;;;;1.86;58.55;99672.66;107755;1273;96211;-68
2022/01/21 10:24:49;;;;;;;12.00;2.40;;;;;;;2.45;57.67;99679.09;107568;1273;137986;-68
2022/01/21 10:27:24;;;;;;;8.70;2.90;;;;;;;3.05;57.11;99670.45;107474;1273;109395;-68
2022/01/21 10:29:53;;;;;;;9.40;3.20;;;;;;;3.60;56.67;99669.79;105952;1271;141964;-68
2022/01/21 10:32:33;;;;;;;7.40;3.40;;;;;;;4.11;56.32;99668.88;106046;1273;97858;-69
2022/01/21 10:35:25;;;;;;;12.00;3.70;;;;;;;4.69;55.41;99670.19;106024;1273;137246;-67
2022/01/21 10:37:57;;;;;;;9.30;4.10;;;;;;;5.13;54.22;99654.89;105854;1274;112647;-68
2022/01/21 10:40:34;;;;;;;7.80;3.30;;;;;;;5.42;53.55;99657.23;105944;1274;109537;-68
2022/01/21 10:43:12;;;;;;;8.90;3.50;;;;;;;5.68;52.46;99655.31;105932;1274;137461;-67
2022/01/21 10:45:52;;;;;;;9.30;3.40;;;;;;;6.00;52.81;99659.27;107660;1271;97418;-68
2022/01/21 10:48:21;;;;;;;6.20;3.00;;;;;;;6.19;49.87;99647.45;107020;1274;138996;-68
2022/01/21 10:51:17;;;;;;;5.30;2.50;;;;;;;6.15;49.71;99650.33;106071;1274;112564;-70
2022/01/21 10:53:46;;;;;;;9.70;3.00;;;;;;;6.18;50.18;99656.45;105912;1273;138431;-68
2022/01/21 10:56:17;;;;;;;6.80;3.10;;;;;;;6.26;49.99;99658.34;105968;1274;108940;-68
2022/01/21 10:58:50;;;;;;;4.70;2.40;;;;;;;6.34;48.92;99644.67;105923;1274;97848;-69
2022/01/21 11:01:22;;;;;;;6.60;2.80;;;;;;;6.27;48.86;99648.97;105875;1272;137145;-69
2022/01/21 11:04:04;;;;;;;4.00;2.30;;;;;;;6.23;48.07;99645.44;106045;1274;112441;-69
2022/01/21 11:06:43;;;;;;;6.30;2.80;;;;;;;6.04;47.19;99646.42;105912;1274;137416;-69
2022/01/21 11:09:20;;;;;;;8.20;2.60;;;;;;;5.81;47.59;99647.95;106081;1273;107852;-68
2022/01/21 11:12:06;;;;;;;7.00;2.50;;;;;;;5.60;46.47;99649.10;105849;1274;138436;-68
2022/01/21 11:14:35;;;;;;;6.40;2.40;;;;;;;5.46;47.56;99661.29;107698;1273;95954;-68
2022/01/21 11:17:11;;;;;;;5.80;2.60;;;;;;;5.31;48.16;99658.84;107654;1273;111230;-67
2022/01/21 11:20:08;;;;;;;9.10;2.90;;;;;;;4.99;47.05;99652.77;107511;1273;137094;-69
2022/01/21 11:22:53;;;;;;;6.50;2.90;;;;;;;4.67;48.66;99660.58;107521;1274;108723;-70
2022/01/21 11:25:43;;;;;;;6.30;2.80;;;;;;;4.59;49.16;99673.79;107579;1273;139931;-69
2022/01/21 11:28:12;;;;;;;7.30;3.00;;;;;;;4.48;49.18;99671.22;107473;1273;96098;-69
2022/01/21 11:30:41;;;;;;;6.90;3.00;;;;;;;4.35;49.09;99666.81;107406;1273;137731;-70
2022/01/21 11:33:10;;;;;;;7.20;2.90;;;;;;;4.23;49.27;99666.64;106091;1274;109494;-69
2022/01/21 11:35:40;;;;;;;8.60;2.90;;;;;;;4.08;49.02;99657.76;105985;1274;137934;-70
2022/01/21 11:38:11;;;;;;;9.40;3.20;;;;;;;3.88;49.52;99661.48;106052;1274;97858;-68
2022/01/21 11:40:41;;;;;;;6.70;3.30;;;;;;;3.74;49.72;99661.34;105975;1272;98423;-68
2022/01/21 11:43:12;;;;;;;6.60;3.10;;;;;;;3.63;49.70;99661.66;106003;1274;137163;-69
2022/01/21 11:48:51;;;;;;;7.00;3.60;;;;;;;3.39;50.19;99663.36;105882;1272;125728;-68
2022/01/21 11:51:23;;;;;;;5.90;3.00;;;;;;;3.20;50.37;99663.41;106118;1274;97918;-69
2022/01/21 11:53:53;;;;;;;12.60;4.10;;;;;;;3.04;50.31;99664.44;105836;1273;138977;-70
2022/01/21 11:56:43;;;;;;;11.30;3.60;;;;;;;2.94;50.71;99671.94;105946;1274;110797;-70
2022/01/21 11:59:23;;;;;;;5.60;3.00;;;;;;;2.80;50.89;99665.89;105988;1274;109077;-70
2022/01/21 12:01:52;;;;;;;6.90;3.10;;;;;;;2.71;50.86;99675.60;107529;1272;138315;-69
2022/01/21 12:04:43;;;;;;;9.50;3.40;;;;;;;2.54;51.13;99680.23;106355;1273;98397;-69
2022/01/21 12:07:53;;;;;;;5.70;3.20;;;;;;;2.29;51.35;99677.33;105951;1273;137171;-70
2022/01/21 12:10:37;;;;;;;13.10;3.60;;;;;;;2.11;52.23;99686.38;106132;1274;112690;-70
2022/01/21 12:13:12;;;;;;;6.90;3.10;;;;;;;2.01;52.23;99669.84;107382;1273;137492;-69
2022/01/21 12:21:51;;;;;;;10.80;3.60;;;;;;;1.40;53.36;99679.41;106075;1274;97832;-70
2022/01/21 12:24:54;;;;;;;7.20;3.00;;;;;;;1.29;53.48;99687.52;106028;1274;137578;-70
2022/01/21 12:27:25;;;;;;;5.60;2.60;;;;;;;1.10;53.58;99678.66;106020;1271;109014;-70
2022/01/21 12:30:27;;;;;;;6.90;2.50;;;;;;;0.93;53.64;99685.04;105935;1274;137637;-71
2022/01/21 12:33:00;;;;;;;9.00;3.60;;;;;;;0.72;54.02;99691.08;106014;1271;97890;-70
2022/01/21 12:35:48;;;;;;;10.40;3.50;;;;;;;0.60;54.70;99704.44;106221;1273;137989;-70
2022/01/21 12:41:25;;;;;;;7.90;2.50;;;;;;;0.50;55.27;99705.10;105545;1279;106741;-69
2022/01/21 12:43:56;;;;;;;7.20;2.90;;;;;;;0.43;55.44;99705.80;105770;1277;137571;-69
2022/01/21 12:46:34;;;;;;;8.10;2.50;;;;;;;0.38;55.78;99704.09;106911;1277;97597;-69
2022/01/21 12:49:24;;;;;;;10.90;3.40;;;;;;;0.33;55.89;99703.73;106816;1277;138805;-69
2022/01/21 12:52:25;;;;;;;7.00;2.70;;;;;;;0.28;55.96;99694.67;105498;1277;112160;-69
2022/01/21 12:57:43;;;;;;;10.20;2.90;;;;;;;0.27;56.37;99694.52;105550;1277;108900;-69
2022/01/21 13:00:14;;;;;;;6.90;3.00;;;;;;;0.26;56.33;99701.86;106335;1277;137898;-69
2022/01/21 13:02:50;;;;;;;9.40;2.70;;;;;;;0.26;56.52;99704.94;107089;1277;96115;-70
2022/01/21 13:05:27;;;;;;;8.00;2.70;;;;;;;0.28;56.73;99707.16;107133;1277;112641;-69
2022/01/21 13:08:04;;;;;;;;;;;;;;;0.30;56.82;99712.29;107101;1277;137106;-71
2022/01/21 13:10:32;;;;;;;7.30;2.90;;;;;;;0.34;56.87;99711.94;107030;1277;108926;-70
2022/01/21 13:13:16;;;;;;;8.50;3.10;;;;;;;0.30;56.51;99711.60;106925;1277;138062;-70
2022/01/21 13:15:47;;;;;;;8.30;3.40;;;;;;;0.28;56.52;99718.10;107129;1276;96231;-70
2022/01/21 13:18:21;;;;;;;7.10;2.70;;;;;;;0.23;56.68;99717.77;107063;1273;137561;-70
2022/01/21 13:20:52;;;;;;;9.10;3.10;;;;;;;0.18;56.69;99725.61;107442;1273;109483;-70
2022/01/21 13:23:39;;;;;;;6.60;2.70;;;;;;;0.14;56.79;99716.20;107588;1273;107207;-70
2022/01/21 13:26:16;;;;;;;11.60;3.60;;;;;;;0.07;57.21;99732.44;106795;1272;137044;-71
2022/01/21 13:29:05;;;;;;;5.50;3.20;;;;;;;0.11;57.97;99727.48;105715;1273;97746;-69
2022/01/21 13:31:36;;;;;;;6.50;2.90;;;;;;;0.06;57.30;99735.35;105572;1273;138445;-70
2022/01/21 13:34:13;;;;;;;6.50;2.90;;;;;;;-0.01;57.28;99730.36;105678;1273;107090;-70